createdAt,value
2023-03-06T00:00:19.301Z,19.85
2023-03-06T00:02:46.216Z,20.10
2023-03-06T00:05:14.529Z,21.70
2023-03-06T00:07:41.998Z,22.25
2023-03-06T00:10:12.488Z,14.60
2023-03-06T00:15:06.010Z,15.68
2023-03-06T00:17:32.527Z,20.20
2023-03-06T00:19:59.057Z,16.33
2023-03-06T00:22:26.592Z,20.25
2023-03-06T00:24:53.684Z,15.80
2023-03-06T00:27:21.231Z,13.98
2023-03-06T00:29:49.779Z,12.13
2023-03-06T00:32:16.305Z,19.33
2023-03-06T00:34:42.875Z,13.63
2023-03-06T00:37:09.382Z,13.52
2023-03-06T00:39:35.908Z,15.13
2023-03-06T00:42:02.429Z,20.60
2023-03-06T00:44:32.002Z,16.90
2023-03-06T00:46:58.528Z,15.25
2023-03-06T00:49:25.068Z,14.10
2023-03-06T00:51:51.648Z,13.85
2023-03-06T00:54:18.227Z,13.13
2023-03-06T00:56:44.760Z,15.40
2023-03-06T00:59:11.434Z,15.95
2023-03-06T01:01:38.432Z,15.18
2023-03-06T01:04:05.113Z,13.85
2023-03-06T01:06:31.651Z,16.58
2023-03-06T01:08:58.456Z,15.52
2023-03-06T01:11:25.023Z,16.77
2023-03-06T01:13:51.906Z,15.43
2023-03-06T01:16:19.532Z,16.77
2023-03-06T01:18:46.719Z,16.75
2023-03-06T01:21:14.336Z,14.68
2023-03-06T01:23:42.525Z,16.88
2023-03-06T01:26:11.041Z,15.23
2023-03-06T01:28:40.028Z,16.05
2023-03-06T01:31:09.591Z,19.00
2023-03-06T01:33:38.482Z,17.83
2023-03-06T01:36:10.480Z,16.15
2023-03-06T01:38:38.363Z,15.13
2023-03-06T01:41:07.540Z,14.90
2023-03-06T01:43:38.422Z,15.80
2023-03-06T01:46:44.081Z,15.65
2023-03-06T01:49:33.877Z,12.23
2023-03-06T01:52:12.142Z,14.95
2023-03-06T01:57:22.544Z,15.85
2023-03-06T01:59:54.535Z,15.55
2023-03-06T02:02:21.314Z,17.17
2023-03-06T02:04:48.587Z,17.75
2023-03-06T02:07:18.692Z,15.10
2023-03-06T02:09:45.229Z,19.52
2023-03-06T02:12:14.520Z,15.52
2023-03-06T02:14:41.862Z,17.50
2023-03-06T02:17:11.795Z,19.38
2023-03-06T02:22:22.502Z,13.68
2023-03-06T02:27:27.852Z,19.83
2023-03-06T02:29:54.531Z,16.42
2023-03-06T02:32:21.148Z,19.35
2023-03-06T02:37:26.189Z,17.05
2023-03-06T02:39:59.920Z,22.10
2023-03-06T02:42:29.006Z,18.48
2023-03-06T02:44:59.200Z,17.73
2023-03-06T02:47:25.952Z,20.67
2023-03-06T02:49:52.596Z,18.73
2023-03-06T02:52:19.165Z,18.58
2023-03-06T02:54:45.702Z,18.55
2023-03-06T02:57:13.151Z,18.52
2023-03-06T02:59:39.766Z,18.35
2023-03-06T03:02:06.647Z,19.65
2023-03-06T03:04:33.216Z,16.73
2023-03-06T03:06:59.807Z,18.48
2023-03-06T03:09:26.455Z,17.25
2023-03-06T03:11:53.236Z,17.85
2023-03-06T03:14:19.865Z,17.10
2023-03-06T03:16:46.610Z,16.42
2023-03-06T03:19:13.170Z,17.25
2023-03-06T03:21:41.011Z,21.27
2023-03-06T03:24:08.320Z,17.83
2023-03-06T03:26:34.873Z,16.95
2023-03-06T03:29:01.584Z,14.90
2023-03-06T03:31:28.405Z,14.48
2023-03-06T03:33:55.356Z,12.80
2023-03-06T03:36:21.947Z,12.88
2023-03-06T03:38:48.593Z,15.02
2023-03-06T03:41:15.118Z,14.13
2023-03-06T03:43:42.983Z,14.18
2023-03-06T03:46:09.678Z,13.80
2023-03-06T03:48:36.187Z,14.30
2023-03-06T03:51:08.418Z,13.20
2023-03-06T03:53:34.998Z,11.73
2023-03-06T03:56:01.664Z,11.90
2023-03-06T03:58:28.234Z,14.70
2023-03-06T04:00:54.845Z,11.20
2023-03-06T04:03:21.723Z,12.55
2023-03-06T04:05:48.261Z,9.95
2023-03-06T04:08:14.884Z,14.18
2023-03-06T04:10:41.417Z,11.75
2023-03-06T04:13:09.973Z,10.45
2023-03-06T04:15:36.955Z,12.07
2023-03-06T04:18:03.858Z,12.57
2023-03-06T04:20:30.769Z,9.70
2023-03-06T04:22:57.339Z,10.18
2023-03-06T04:25:23.908Z,12.13
2023-03-06T04:27:50.544Z,12.77
2023-03-06T04:30:17.274Z,8.57
2023-03-06T04:32:43.935Z,7.32
2023-03-06T04:35:10.554Z,9.20
2023-03-06T04:37:37.077Z,10.15
2023-03-06T04:40:04.513Z,8.27
2023-03-06T04:42:31.279Z,11.23
2023-03-06T04:44:57.837Z,11.52
2023-03-06T04:47:24.410Z,11.27
2023-03-06T04:49:51.119Z,7.63
2023-03-06T04:52:17.709Z,7.28
2023-03-06T04:54:46.026Z,8.27
2023-03-06T04:57:14.157Z,8.88
2023-03-06T04:59:40.684Z,11.20
2023-03-06T05:02:07.291Z,7.25
2023-03-06T05:04:33.904Z,9.52
2023-03-06T05:07:00.427Z,9.65
2023-03-06T05:09:26.948Z,7.43
2023-03-06T05:11:53.559Z,8.38
2023-03-06T05:14:20.753Z,9.35
2023-03-06T05:16:47.361Z,8.10
2023-03-06T05:19:14.122Z,8.48
2023-03-06T05:21:40.650Z,8.95
2023-03-06T05:24:07.268Z,9.98
2023-03-06T05:26:34.836Z,8.40
2023-03-06T05:29:01.387Z,8.10
2023-03-06T05:31:28.008Z,9.52
2023-03-06T05:33:54.545Z,9.57
2023-03-06T05:36:21.151Z,8.40
2023-03-06T05:38:47.689Z,8.82
2023-03-06T05:41:14.313Z,9.60
2023-03-06T05:43:40.928Z,9.18
2023-03-06T05:46:08.232Z,7.45
2023-03-06T05:48:35.624Z,11.07
2023-03-06T05:51:02.722Z,9.43
2023-03-06T05:53:29.821Z,9.02
2023-03-06T05:56:00.045Z,9.13
2023-03-06T05:58:27.394Z,8.57
2023-03-06T06:00:53.992Z,8.55
2023-03-06T06:03:21.027Z,13.48
2023-03-06T06:05:47.710Z,7.88
2023-03-06T06:08:14.276Z,10.20
2023-03-06T06:10:40.839Z,7.45
2023-03-06T06:13:07.847Z,8.45
2023-03-06T06:15:34.541Z,10.30
2023-03-06T06:18:01.298Z,10.05
2023-03-06T06:20:28.562Z,8.05
2023-03-06T06:22:55.323Z,7.82
2023-03-06T06:25:22.256Z,9.10
2023-03-06T06:27:48.973Z,8.25
2023-03-06T06:30:15.695Z,9.93
2023-03-06T06:32:42.422Z,10.07
2023-03-06T06:35:09.306Z,8.48
2023-03-06T06:37:35.852Z,7.15
2023-03-06T06:40:02.483Z,11.30
2023-03-06T06:42:34.621Z,7.43
2023-03-06T06:45:05.281Z,8.55
2023-03-06T06:47:33.064Z,9.38
2023-03-06T06:50:00.038Z,7.30
2023-03-06T06:52:26.612Z,10.15
2023-03-06T06:54:53.231Z,9.38
2023-03-06T06:57:19.911Z,12.73
2023-03-06T06:59:46.546Z,16.67
2023-03-06T07:02:15.722Z,11.20
2023-03-06T07:05:00.370Z,9.55
2023-03-06T07:07:28.928Z,20.20
2023-03-06T07:09:56.017Z,11.07
2023-03-06T07:12:22.872Z,12.05
2023-03-06T07:14:49.494Z,8.88
2023-03-06T07:17:16.117Z,10.77
2023-03-06T07:19:42.678Z,12.57
2023-03-06T07:22:09.293Z,13.25
2023-03-06T07:24:35.811Z,10.68
2023-03-06T07:27:02.390Z,27.05
2023-03-06T07:29:29.401Z,18.77
2023-03-06T07:31:55.981Z,13.10
2023-03-06T07:34:22.694Z,14.98
2023-03-06T07:36:50.916Z,14.38
2023-03-06T07:39:17.815Z,14.50
2023-03-06T07:41:44.504Z,9.23
2023-03-06T07:44:11.078Z,11.98
2023-03-06T07:46:37.675Z,12.25
2023-03-06T07:49:04.273Z,8.40
2023-03-06T07:51:30.838Z,10.77
2023-03-06T07:53:57.382Z,9.38
2023-03-06T07:56:23.973Z,10.35
2023-03-06T07:58:50.500Z,11.13
2023-03-06T08:01:20.233Z,10.93
2023-03-06T08:03:47.787Z,10.80
2023-03-06T08:06:17.112Z,20.77
2023-03-06T08:08:46.426Z,18.65
2023-03-06T08:11:15.841Z,18.27
2023-03-06T08:13:42.707Z,17.08
2023-03-06T08:16:10.149Z,18.20
2023-03-06T08:18:39.603Z,16.08
2023-03-06T08:21:13.321Z,14.90
2023-03-06T08:23:40.604Z,18.52
2023-03-06T08:26:10.769Z,13.27
2023-03-06T08:28:37.311Z,17.73
2023-03-06T08:31:10.166Z,16.15
2023-03-06T08:33:37.038Z,11.48
2023-03-06T08:36:03.787Z,9.20
2023-03-06T08:38:30.353Z,10.88
2023-03-06T08:40:57.057Z,12.20
2023-03-06T08:43:23.587Z,11.48
2023-03-06T08:45:54.860Z,10.05
2023-03-06T08:48:21.637Z,9.15
2023-03-06T08:50:48.423Z,10.73
2023-03-06T08:53:15.295Z,13.20
2023-03-06T08:55:41.894Z,10.63
2023-03-06T08:58:08.712Z,12.40
2023-03-06T09:00:37.678Z,14.48
2023-03-06T09:03:04.943Z,10.85
2023-03-06T09:05:32.213Z,11.80
2023-03-06T09:07:58.834Z,10.50
2023-03-06T09:10:26.191Z,36.00
2023-03-06T09:12:55.084Z,23.30
2023-03-06T09:15:22.926Z,20.58
2023-03-06T09:17:50.849Z,23.08
2023-03-06T09:20:18.582Z,23.30
2023-03-06T09:22:45.764Z,39.63
2023-03-06T09:25:13.856Z,39.70
2023-03-06T09:27:41.058Z,35.58
2023-03-06T09:30:08.791Z,40.53
2023-03-06T09:32:35.455Z,33.97
2023-03-06T09:35:02.034Z,36.88
2023-03-06T09:37:28.575Z,52.10
2023-03-06T09:39:55.192Z,33.28
2023-03-06T09:42:23.809Z,28.50
2023-03-06T09:44:54.801Z,20.27
2023-03-06T09:47:48.372Z,26.35
2023-03-06T09:50:40.744Z,24.92
2023-03-06T09:53:38.000Z,30.73
2023-03-06T09:56:17.959Z,39.38
2023-03-06T09:58:50.113Z,33.65
2023-03-06T10:01:23.601Z,35.28
2023-03-06T10:06:30.949Z,30.27
2023-03-06T10:09:05.620Z,36.42
2023-03-06T10:11:46.323Z,38.97
2023-03-06T10:14:30.615Z,12.70
2023-03-06T10:16:58.540Z,11.20
2023-03-06T10:19:34.124Z,14.25
2023-03-06T10:22:07.261Z,18.65
2023-03-06T10:24:48.160Z,13.65
2023-03-06T10:35:21.793Z,18.95
2023-03-06T10:37:49.431Z,16.75
2023-03-06T10:40:31.112Z,7.18
2023-03-06T10:43:10.872Z,18.38
2023-03-06T10:45:49.451Z,18.48
2023-03-06T10:48:25.335Z,14.73
2023-03-06T10:50:54.898Z,17.83
2023-03-06T10:56:01.394Z,8.98
2023-03-06T10:58:30.329Z,10.60
2023-03-06T11:03:54.204Z,10.05
2023-03-06T11:06:35.188Z,8.73
2023-03-06T11:11:51.374Z,15.13
2023-03-06T11:14:23.022Z,14.15
2023-03-06T11:16:53.423Z,11.05
2023-03-06T11:19:29.500Z,18.10
2023-03-06T11:22:18.466Z,17.17
2023-03-06T11:24:50.402Z,13.35
2023-03-06T11:27:34.531Z,14.90
2023-03-06T11:30:07.666Z,6.30
2023-03-06T11:32:57.625Z,11.73
2023-03-06T11:35:28.429Z,10.27
2023-03-06T11:38:00.836Z,9.30
2023-03-06T11:40:32.289Z,27.60
2023-03-06T11:45:47.245Z,21.83
2023-03-06T11:51:06.410Z,26.55
2023-03-06T11:53:39.368Z,9.40
2023-03-06T11:56:22.861Z,18.48
2023-03-06T12:07:35.968Z,9.82
2023-03-06T12:18:28.993Z,4.03
2023-03-06T12:21:20.162Z,4.13
2023-03-06T12:24:21.501Z,4.88
2023-03-06T12:29:49.644Z,6.25
2023-03-06T12:38:03.440Z,2.20
2023-03-06T12:43:53.970Z,3.75
2023-03-06T12:46:22.526Z,2.05
2023-03-06T12:49:03.064Z,2.55
2023-03-06T12:51:31.274Z,2.33
2023-03-06T12:54:00.339Z,2.33
2023-03-06T12:56:28.666Z,3.55
2023-03-06T12:58:57.167Z,3.85
2023-03-06T13:14:58.259Z,5.05
2023-03-06T13:20:35.003Z,8.60
2023-03-06T13:23:44.334Z,6.15
2023-03-06T13:29:46.860Z,8.38
2023-03-06T13:34:51.726Z,12.50
2023-03-06T13:42:36.064Z,8.70
2023-03-06T13:45:24.799Z,8.52
2023-03-06T13:48:15.845Z,15.90
2023-03-06T13:53:51.591Z,6.53
2023-03-06T14:10:21.287Z,7.45
2023-03-06T14:21:13.429Z,4.03
2023-03-06T14:23:42.737Z,4.45
2023-03-06T14:28:59.866Z,8.57
2023-03-06T14:31:31.740Z,20.08
2023-03-06T14:34:02.299Z,8.15
2023-03-06T14:36:36.266Z,2.80
2023-03-06T14:39:08.867Z,4.95
2023-03-06T14:41:36.676Z,2.70
2023-03-06T14:44:25.822Z,3.40
2023-03-06T14:46:55.859Z,2.33
2023-03-06T14:49:25.055Z,1.88
2023-03-06T14:51:55.351Z,2.25
2023-03-06T14:54:28.670Z,1.75
2023-03-06T14:57:02.603Z,2.80
2023-03-06T14:59:33.037Z,3.83
2023-03-06T15:02:03.392Z,1.55
2023-03-06T15:07:21.797Z,2.50
2023-03-06T15:09:51.718Z,2.88
2023-03-06T15:17:45.698Z,3.92
2023-03-06T15:20:52.470Z,1.73
2023-03-06T15:23:26.750Z,2.20
2023-03-06T15:25:59.214Z,1.35
2023-03-06T15:31:23.030Z,2.28
2023-03-06T15:36:48.513Z,0.77
2023-03-06T15:42:28.052Z,2.63
2023-03-06T15:44:57.047Z,1.67
2023-03-06T15:47:24.386Z,3.25
2023-03-06T15:49:53.191Z,3.42
2023-03-06T15:52:22.065Z,2.05
2023-03-06T15:54:49.250Z,4.40
2023-03-06T15:57:25.247Z,5.40
2023-03-06T15:59:52.521Z,7.78
2023-03-06T16:02:22.138Z,7.85
2023-03-06T16:04:49.415Z,5.15
2023-03-06T16:07:16.100Z,5.07
2023-03-06T16:09:43.173Z,5.22
2023-03-06T16:12:16.030Z,3.92
2023-03-06T16:14:42.670Z,4.93
2023-03-06T16:17:12.222Z,3.08
2023-03-06T16:19:38.933Z,3.72
2023-03-06T16:22:05.535Z,3.17
2023-03-06T16:24:32.426Z,3.45
2023-03-06T16:27:01.506Z,1.48
2023-03-06T16:29:28.521Z,2.92
2023-03-06T16:31:56.845Z,2.80
2023-03-06T16:34:23.928Z,2.63
2023-03-06T16:36:50.652Z,3.63
2023-03-06T16:39:19.762Z,2.15
2023-03-06T16:41:46.603Z,4.20
2023-03-06T16:44:13.584Z,2.50
2023-03-06T16:46:45.319Z,4.25
2023-03-06T16:49:16.951Z,5.63
2023-03-06T16:51:43.691Z,3.42
2023-03-06T16:54:11.379Z,7.32
2023-03-06T16:56:37.936Z,4.93
2023-03-06T16:59:04.549Z,2.90
2023-03-06T17:01:31.101Z,2.63
2023-03-06T17:03:57.733Z,2.47
2023-03-06T17:06:24.509Z,1.55
2023-03-06T17:08:51.209Z,3.45
2023-03-06T17:11:20.279Z,1.20
2023-03-06T17:13:47.976Z,1.50
2023-03-06T17:16:16.641Z,1.45
2023-03-06T17:18:45.165Z,3.70
2023-03-06T17:21:12.607Z,1.67
2023-03-06T17:23:39.140Z,2.20
2023-03-06T17:28:45.113Z,3.10
2023-03-06T17:31:16.204Z,3.75
2023-03-06T17:33:43.612Z,2.20
2023-03-06T17:36:11.460Z,0.90
2023-03-06T17:38:38.143Z,2.25
2023-03-06T17:41:06.555Z,1.85
2023-03-06T17:43:33.406Z,1.98
2023-03-06T17:46:04.691Z,1.52
2023-03-06T17:48:31.355Z,2.88
2023-03-06T17:50:58.235Z,4.65
2023-03-06T17:53:25.218Z,3.03
2023-03-06T17:55:51.834Z,5.55
2023-03-06T17:58:18.643Z,1.85
2023-03-06T18:00:45.938Z,4.95
2023-03-06T18:03:12.567Z,3.17
2023-03-06T18:05:39.272Z,2.10
2023-03-06T18:08:08.245Z,2.33
2023-03-06T18:10:34.880Z,1.00
2023-03-06T18:13:01.423Z,1.67
2023-03-06T18:15:28.032Z,1.55
2023-03-06T18:17:56.626Z,1.75
2023-03-06T18:20:23.210Z,1.67
2023-03-06T18:22:49.815Z,3.10
2023-03-06T18:25:17.483Z,2.72
2023-03-06T18:27:44.080Z,1.95
2023-03-06T18:30:11.314Z,2.10
2023-03-06T18:32:37.896Z,1.85
2023-03-06T18:35:04.835Z,2.53
2023-03-06T18:37:31.429Z,2.10
2023-03-06T18:39:58.100Z,2.30
2023-03-06T18:42:24.770Z,1.92
2023-03-06T18:44:51.276Z,1.92
2023-03-06T18:47:17.854Z,2.00
2023-03-06T18:49:45.973Z,2.03
2023-03-06T18:52:12.971Z,3.00
2023-03-06T18:54:39.660Z,3.97
2023-03-06T18:57:06.371Z,2.22
2023-03-06T18:59:33.189Z,3.50
2023-03-06T19:01:59.841Z,4.03
2023-03-06T19:04:27.145Z,5.95
2023-03-06T19:06:54.898Z,3.83
2023-03-06T19:09:22.214Z,4.43
2023-03-06T19:11:49.238Z,3.38
2023-03-06T19:14:16.175Z,3.35
2023-03-06T19:16:42.980Z,6.45
2023-03-06T19:19:09.594Z,9.75
2023-03-06T19:21:36.175Z,8.40
2023-03-06T19:24:02.888Z,3.17
2023-03-06T19:26:29.674Z,4.07
2023-03-06T19:28:56.290Z,5.05
2023-03-06T19:31:25.793Z,9.90
2023-03-06T19:33:53.753Z,3.78
2023-03-06T19:36:23.734Z,5.53
2023-03-06T19:38:53.923Z,2.42
2023-03-06T19:41:20.620Z,4.30
2023-03-06T19:43:52.970Z,4.05
2023-03-06T19:46:20.948Z,2.58
2023-03-06T19:48:47.718Z,6.53
2023-03-06T19:51:14.506Z,4.90
2023-03-06T19:53:41.272Z,4.20
2023-03-06T19:56:11.347Z,3.22
2023-03-06T19:58:38.363Z,2.60
2023-03-06T20:01:07.748Z,3.65
2023-03-06T20:03:34.311Z,7.70
2023-03-06T20:06:01.221Z,4.82
2023-03-06T20:08:27.800Z,12.48
2023-03-06T20:10:54.361Z,3.67
2023-03-06T20:13:20.925Z,6.65
2023-03-06T20:15:47.478Z,3.92
2023-03-06T20:18:14.210Z,3.38
2023-03-06T20:20:40.881Z,3.65
2023-03-06T20:23:07.440Z,4.22
2023-03-06T20:25:36.525Z,2.95
2023-03-06T20:28:04.075Z,4.88
2023-03-06T20:30:37.752Z,2.83
2023-03-06T20:33:05.417Z,3.63
2023-03-06T20:35:32.104Z,6.10
2023-03-06T20:37:59.817Z,3.33
2023-03-06T20:40:26.568Z,6.72
2023-03-06T20:42:53.097Z,6.50
2023-03-06T20:45:19.756Z,12.52
2023-03-06T20:47:47.168Z,7.63
2023-03-06T20:50:15.370Z,7.28
2023-03-06T20:52:42.011Z,5.10
2023-03-06T20:55:09.106Z,6.25
2023-03-06T20:57:35.706Z,8.05
2023-03-06T21:00:03.523Z,12.10
2023-03-06T21:02:30.186Z,8.05
2023-03-06T21:04:56.725Z,8.40
2023-03-06T21:07:23.396Z,6.70
2023-03-06T21:09:49.942Z,8.40
2023-03-06T21:12:16.679Z,11.00
2023-03-06T21:14:43.408Z,6.60
2023-03-06T21:17:09.925Z,3.03
2023-03-06T21:19:36.915Z,2.88
2023-03-06T21:22:03.595Z,8.15
2023-03-06T21:24:30.133Z,3.20
2023-03-06T21:26:56.690Z,5.35
2023-03-06T21:29:23.216Z,6.72
2023-03-06T21:31:49.905Z,6.03
2023-03-06T21:34:16.445Z,2.97
2023-03-06T21:36:43.566Z,6.47
2023-03-06T21:39:10.598Z,3.92
2023-03-06T21:41:38.157Z,3.60
2023-03-06T21:44:05.736Z,5.95
2023-03-06T21:46:33.026Z,7.70
2023-03-06T21:48:59.729Z,6.72
2023-03-06T21:51:27.211Z,3.90
2023-03-06T21:53:54.767Z,6.38
2023-03-06T21:56:25.018Z,7.13
2023-03-06T21:58:51.637Z,9.02
2023-03-06T22:01:22.158Z,7.40
2023-03-06T22:03:48.818Z,8.70
2023-03-06T22:06:19.079Z,7.07
2023-03-06T22:08:45.956Z,5.70
2023-03-06T22:11:15.962Z,5.78
2023-03-06T22:13:43.037Z,6.30
2023-03-06T22:16:11.677Z,9.60
2023-03-06T22:18:38.353Z,8.95
2023-03-06T22:21:08.189Z,12.73
2023-03-06T22:23:34.782Z,6.90
2023-03-06T22:26:04.226Z,4.38
2023-03-06T22:28:31.289Z,8.48
2023-03-06T22:31:09.030Z,7.80
2023-03-06T22:33:36.119Z,6.93
2023-03-06T22:36:06.378Z,5.55
2023-03-06T22:38:35.878Z,8.45
2023-03-06T22:41:02.964Z,7.57
2023-03-06T22:43:29.796Z,9.23
2023-03-06T22:46:01.312Z,5.32
2023-03-06T22:48:28.354Z,6.60
2023-03-06T22:50:54.888Z,6.05
2023-03-06T22:53:21.864Z,6.97
2023-03-06T22:55:48.394Z,5.80
2023-03-06T22:58:15.539Z,6.32
2023-03-06T23:00:42.082Z,7.28
2023-03-06T23:03:09.050Z,5.38
2023-03-06T23:05:40.912Z,6.43
2023-03-06T23:08:07.447Z,5.32
2023-03-06T23:10:41.403Z,5.75
2023-03-06T23:13:07.999Z,8.13
2023-03-06T23:15:36.394Z,8.65
2023-03-06T23:18:03.453Z,7.05
2023-03-06T23:20:30.203Z,6.43
2023-03-06T23:22:56.716Z,8.57
2023-03-06T23:25:23.277Z,9.88
2023-03-06T23:27:49.829Z,3.53
2023-03-06T23:30:16.537Z,6.93
2023-03-06T23:32:45.765Z,5.63
2023-03-06T23:35:12.508Z,3.75
2023-03-06T23:37:39.140Z,3.58
2023-03-06T23:40:07.845Z,1.42
2023-03-06T23:42:34.351Z,2.47
2023-03-06T23:45:00.977Z,0.68
2023-03-06T23:47:31.510Z,3.00
2023-03-06T23:49:58.030Z,1.65
2023-03-06T23:52:24.703Z,2.33
2023-03-06T23:54:51.253Z,1.50
2023-03-06T23:57:17.799Z,1.48
2023-03-06T23:59:44.485Z,1.25
